createdAt,value
2022-11-15T00:01:22.366Z,100.00
2022-11-15T00:04:11.233Z,100.00
2022-11-15T00:10:07.841Z,100.00
2022-11-15T00:12:52.958Z,100.00
2022-11-15T00:15:39.681Z,100.00
2022-11-15T00:18:25.110Z,100.00
2022-11-15T00:21:36.033Z,100.00
2022-11-15T00:24:21.977Z,100.00
2022-11-15T00:27:32.199Z,100.00
2022-11-15T00:30:17.781Z,100.00
2022-11-15T00:33:28.996Z,100.00
2022-11-15T00:36:14.363Z,100.00
2022-11-15T00:39:25.191Z,100.00
2022-11-15T00:42:10.227Z,100.00
2022-11-15T00:44:55.905Z,100.00
2022-11-15T00:47:40.841Z,100.00
2022-11-15T00:50:27.061Z,100.00
2022-11-15T00:53:15.918Z,100.00
2022-11-15T00:56:10.508Z,100.00
2022-11-15T00:59:18.383Z,100.00
2022-11-15T01:02:08.564Z,100.00
2022-11-15T01:04:53.528Z,100.00
2022-11-15T01:07:38.908Z,100.00
2022-11-15T01:10:25.093Z,100.00
2022-11-15T01:13:35.323Z,100.00
2022-11-15T01:16:20.611Z,100.00
2022-11-15T01:19:31.511Z,100.00
2022-11-15T01:22:17.586Z,100.00
2022-11-15T01:25:28.220Z,100.00
2022-11-15T01:28:13.390Z,100.00
2022-11-15T01:31:23.967Z,100.00
2022-11-15T01:34:11.377Z,100.00
2022-11-15T01:40:12.056Z,100.00
2022-11-15T01:43:19.644Z,100.00
2022-11-15T01:46:33.180Z,100.00
2022-11-15T01:58:27.826Z,100.00
2022-11-15T02:01:15.666Z,100.00
2022-11-15T02:04:27.511Z,100.00
2022-11-15T02:07:20.603Z,100.00
2022-11-15T02:10:13.578Z,100.00
2022-11-15T02:13:18.737Z,100.00
2022-11-15T02:16:33.253Z,100.00
2022-11-15T02:19:33.768Z,100.00
2022-11-15T02:22:43.878Z,100.00
2022-11-15T02:25:50.765Z,100.00
2022-11-15T02:29:14.316Z,100.00
2022-11-15T02:32:22.564Z,100.00
2022-11-15T02:35:33.333Z,100.00
2022-11-15T02:38:26.836Z,99.95
2022-11-15T02:41:26.677Z,99.58
2022-11-15T02:44:22.990Z,99.52
2022-11-15T02:47:36.254Z,99.36
2022-11-15T02:50:26.399Z,99.67
2022-11-15T02:53:18.509Z,99.28
2022-11-15T02:56:14.162Z,99.18
2022-11-15T02:59:50.973Z,99.26
2022-11-15T03:02:48.111Z,99.05
2022-11-15T03:05:41.837Z,99.12
2022-11-15T03:08:45.324Z,98.94
2022-11-15T03:11:37.239Z,99.08
2022-11-15T03:14:33.451Z,98.51
2022-11-15T03:17:24.482Z,98.58
2022-11-15T03:20:13.329Z,98.63
2022-11-15T03:23:23.694Z,98.42
2022-11-15T03:26:17.584Z,98.72
2022-11-15T03:29:32.742Z,98.62
2022-11-15T03:32:24.247Z,98.71
2022-11-15T03:35:38.886Z,99.03
2022-11-15T03:38:27.784Z,99.22
2022-11-15T03:41:38.643Z,99.01
2022-11-15T03:45:32.389Z,98.92
2022-11-15T03:48:25.539Z,99.00
2022-11-15T03:51:37.020Z,98.67
2022-11-15T03:54:22.513Z,98.90
2022-11-15T03:57:33.631Z,98.29
2022-11-15T04:00:18.911Z,98.66
2022-11-15T04:03:29.963Z,98.68
2022-11-15T04:06:15.150Z,98.79
2022-11-15T04:09:21.954Z,99.04
2022-11-15T04:12:13.378Z,99.18
2022-11-15T04:15:19.298Z,98.77
2022-11-15T04:18:14.813Z,99.03
2022-11-15T04:21:44.562Z,99.19
2022-11-15T04:24:30.027Z,99.54
2022-11-15T04:27:15.979Z,99.38
2022-11-15T04:30:11.552Z,99.55
2022-11-15T04:32:56.950Z,99.92
2022-11-15T04:35:43.518Z,99.63
2022-11-15T04:38:28.882Z,99.99
2022-11-15T04:41:17.495Z,99.76
2022-11-15T04:44:12.011Z,99.80
2022-11-15T04:46:57.703Z,99.87
2022-11-15T04:49:45.002Z,100.00
2022-11-15T04:52:30.477Z,100.00
2022-11-15T04:55:17.241Z,100.00
2022-11-15T04:58:27.674Z,100.00
2022-11-15T05:01:18.851Z,100.00
2022-11-15T05:04:29.789Z,100.00
2022-11-15T05:07:18.450Z,100.00
2022-11-15T05:10:28.882Z,100.00
2022-11-15T05:13:18.872Z,100.00
2022-11-15T05:16:30.035Z,100.00
2022-11-15T05:19:22.409Z,100.00
2022-11-15T05:22:12.328Z,100.00
2022-11-15T05:28:29.183Z,100.00
2022-11-15T05:31:20.649Z,100.00
2022-11-15T05:34:30.741Z,100.00
2022-11-15T05:37:20.300Z,100.00
2022-11-15T05:40:32.394Z,100.00
2022-11-15T05:43:22.595Z,100.00
2022-11-15T05:46:11.705Z,100.00
2022-11-15T05:48:59.073Z,100.00
2022-11-15T05:51:47.784Z,100.00
2022-11-15T05:54:34.573Z,100.00
2022-11-15T05:57:21.485Z,100.00
2022-11-15T06:00:10.936Z,100.00
2022-11-15T06:02:56.059Z,100.00
2022-11-15T06:05:42.811Z,100.00
2022-11-15T06:08:28.392Z,100.00
2022-11-15T06:11:23.582Z,100.00
2022-11-15T06:14:34.147Z,100.00
2022-11-15T06:17:25.864Z,100.00
2022-11-15T06:20:16.864Z,100.00
2022-11-15T06:23:20.780Z,100.00
2022-11-15T06:26:32.613Z,100.00
2022-11-15T06:29:20.689Z,100.00
2022-11-15T06:32:31.515Z,100.00
2022-11-15T06:35:19.932Z,100.00
2022-11-15T06:38:30.955Z,100.00
2022-11-15T06:41:25.929Z,100.00
2022-11-15T06:44:14.081Z,100.00
2022-11-15T06:46:59.770Z,100.00
2022-11-15T06:49:49.267Z,100.00
2022-11-15T06:52:34.563Z,100.00
2022-11-15T06:55:20.197Z,100.00
2022-11-15T06:58:13.102Z,100.00
2022-11-15T07:01:23.337Z,100.00
2022-11-15T07:04:15.476Z,100.00
2022-11-15T07:07:18.869Z,100.00
2022-11-15T07:10:18.444Z,100.00
2022-11-15T07:13:34.705Z,100.00
2022-11-15T07:16:24.437Z,100.00
2022-11-15T07:19:38.719Z,100.00
2022-11-15T07:22:27.703Z,100.00
2022-11-15T07:25:18.910Z,100.00
2022-11-15T07:28:39.916Z,100.00
2022-11-15T07:31:26.863Z,100.00
2022-11-15T07:34:12.364Z,100.00
2022-11-15T07:36:58.404Z,100.00
2022-11-15T07:39:44.513Z,100.00
2022-11-15T07:42:51.518Z,100.00
2022-11-15T07:45:45.400Z,100.00
2022-11-15T07:48:42.725Z,100.00
2022-11-15T07:51:30.069Z,100.00
2022-11-15T07:54:15.631Z,100.00
2022-11-15T07:57:27.650Z,100.00
2022-11-15T08:00:17.556Z,100.00
2022-11-15T08:03:28.540Z,100.00
2022-11-15T08:06:14.610Z,100.00
2022-11-15T08:09:25.123Z,100.00
2022-11-15T08:12:18.698Z,100.00
2022-11-15T08:15:29.753Z,100.00
2022-11-15T08:18:17.607Z,100.00
2022-11-15T08:21:28.693Z,100.00
2022-11-15T08:24:14.517Z,100.00
2022-11-15T08:26:59.884Z,100.00
2022-11-15T08:29:46.488Z,100.00
2022-11-15T08:32:32.803Z,100.00
2022-11-15T08:35:24.909Z,100.00
2022-11-15T08:38:16.039Z,100.00
2022-11-15T08:41:29.191Z,100.00
2022-11-15T08:44:15.178Z,100.00
2022-11-15T08:47:23.044Z,100.00
2022-11-15T08:50:18.967Z,100.00
2022-11-15T08:53:29.244Z,100.00
2022-11-15T08:56:18.842Z,100.00
2022-11-15T08:59:29.388Z,100.00
2022-11-15T09:02:18.825Z,100.00
2022-11-15T09:05:20.635Z,100.00
2022-11-15T09:08:40.694Z,100.00
2022-11-15T09:11:22.862Z,100.00
2022-11-15T09:14:18.069Z,100.00
2022-11-15T09:20:53.548Z,100.00
2022-11-15T09:23:51.844Z,100.00
2022-11-15T09:30:28.093Z,100.00
2022-11-15T09:33:51.577Z,100.00
2022-11-15T09:36:50.105Z,100.00
2022-11-15T09:39:58.751Z,100.00
2022-11-15T09:46:44.387Z,100.00
2022-11-15T09:49:59.125Z,100.00
2022-11-15T09:52:49.843Z,100.00
2022-11-15T09:55:52.177Z,100.00
2022-11-15T09:58:54.208Z,100.00
2022-11-15T10:09:28.761Z,100.00
2022-11-15T10:12:27.951Z,100.00
2022-11-15T10:15:45.271Z,100.00
2022-11-15T10:18:24.529Z,100.00
2022-11-15T10:21:25.435Z,100.00
2022-11-15T10:23:57.998Z,100.00
2022-11-15T10:26:35.115Z,100.00
2022-11-15T10:29:29.571Z,100.00
2022-11-15T10:32:02.473Z,100.00
2022-11-15T10:35:01.193Z,100.00
2022-11-15T10:37:52.821Z,100.00
2022-11-15T10:40:28.603Z,100.00
2022-11-15T10:43:29.930Z,100.00
2022-11-15T10:45:58.729Z,100.00
2022-11-15T10:48:43.753Z,100.00
2022-11-15T10:51:30.936Z,100.00
2022-11-15T10:54:02.284Z,100.00
2022-11-15T10:56:44.078Z,100.00
2022-11-15T10:59:40.262Z,100.00
2022-11-15T11:02:35.185Z,100.00
2022-11-15T11:05:29.275Z,100.00
2022-11-15T11:08:37.559Z,100.00
2022-11-15T11:11:50.096Z,100.00
2022-11-15T11:14:27.178Z,100.00
2022-11-15T11:16:57.518Z,100.00
2022-11-15T11:19:57.600Z,100.00
2022-11-15T11:22:35.591Z,100.00
2022-11-15T11:25:46.433Z,100.00
2022-11-15T11:28:41.344Z,100.00
2022-11-15T11:31:55.292Z,100.00
2022-11-15T11:34:56.272Z,100.00
2022-11-15T11:46:42.866Z,100.00
2022-11-15T11:54:03.488Z,100.00
2022-11-15T11:56:53.224Z,100.00
2022-11-15T11:59:45.462Z,100.00
2022-11-15T12:03:27.766Z,100.00
2022-11-15T12:20:58.460Z,100.00
2022-11-15T12:24:04.446Z,100.00
2022-11-15T12:40:44.924Z,100.00
2022-11-15T12:43:47.529Z,100.00
2022-11-15T12:47:39.406Z,100.00
2022-11-15T12:50:52.479Z,100.00
2022-11-15T12:53:39.616Z,100.00
2022-11-15T13:00:52.371Z,100.00
2022-11-15T13:03:36.956Z,100.00
2022-11-15T13:06:52.105Z,100.00
2022-11-15T13:09:36.343Z,100.00
2022-11-15T13:12:30.841Z,100.00
2022-11-15T13:19:48.997Z,100.00
2022-11-15T13:27:32.985Z,100.00
2022-11-15T13:30:58.591Z,100.00
2022-11-15T13:42:05.759Z,100.00
2022-11-15T13:49:35.723Z,100.00
2022-11-15T13:52:56.389Z,100.00
2022-11-15T13:55:49.900Z,100.00
2022-11-15T13:58:24.398Z,100.00
2022-11-15T14:17:45.677Z,100.00
2022-11-15T14:20:47.383Z,100.00
2022-11-15T14:23:44.072Z,99.64
2022-11-15T14:26:30.526Z,99.26
2022-11-15T14:29:00.788Z,99.30
2022-11-15T14:31:53.589Z,99.58
2022-11-15T14:43:40.878Z,98.93
2022-11-15T14:46:38.761Z,98.80
2022-11-15T15:08:52.161Z,99.70
2022-11-15T15:14:55.295Z,99.83
2022-11-15T15:17:51.874Z,99.94
2022-11-15T15:27:54.183Z,99.95
2022-11-15T15:30:39.282Z,99.96
2022-11-15T15:33:49.769Z,100.00
2022-11-15T15:37:33.650Z,100.00
2022-11-15T15:40:02.334Z,100.00
2022-11-15T15:42:33.396Z,100.00
2022-11-15T15:54:53.311Z,100.00
2022-11-15T16:14:29.842Z,100.00
2022-11-15T16:16:57.856Z,100.00
2022-11-15T16:19:55.311Z,100.00
2022-11-15T16:22:30.717Z,100.00
2022-11-15T16:24:59.133Z,100.00
2022-11-15T16:27:32.945Z,100.00
2022-11-15T16:30:00.529Z,100.00
2022-11-15T16:32:34.372Z,100.00
2022-11-15T16:35:44.051Z,100.00
2022-11-15T16:38:30.972Z,100.00
2022-11-15T16:41:02.152Z,100.00
2022-11-15T16:43:33.208Z,100.00
2022-11-15T16:53:52.061Z,100.00
2022-11-15T16:56:05.793Z,100.00
2022-11-15T16:58:54.741Z,100.00
2022-11-15T17:04:33.369Z,100.00
2022-11-15T17:10:55.064Z,100.00
2022-11-15T17:13:49.539Z,100.00
2022-11-15T17:23:34.767Z,100.00
2022-11-15T17:26:40.234Z,100.00
2022-11-15T17:29:48.134Z,100.00
2022-11-15T17:36:23.032Z,100.00
2022-11-15T17:40:19.401Z,100.00
2022-11-15T17:42:48.197Z,100.00
2022-11-15T18:27:40.753Z,100.00
2022-11-15T19:39:05.200Z,100.00
2022-11-15T20:02:57.033Z,100.00
